createdAt,value
2022-12-01T00:02:04.107Z,98573.22
2022-12-01T00:04:31.949Z,98568.75
2022-12-01T00:06:58.332Z,98562.50
2022-12-01T00:09:25.348Z,98559.84
2022-12-01T00:11:51.639Z,98558.91
2022-12-01T00:14:21.192Z,98569.59
2022-12-01T00:16:47.786Z,98559.84
2022-12-01T00:19:17.154Z,98577.53
2022-12-01T00:21:44.561Z,98567.94
2022-12-01T00:24:10.932Z,98565.13
2022-12-01T00:26:37.612Z,98568.47
2022-12-01T00:29:04.647Z,98564.81
2022-12-01T00:31:31.469Z,98563.03
2022-12-01T00:33:57.745Z,98566.56
2022-12-01T00:36:24.243Z,98568.84
2022-12-01T00:38:50.655Z,98577.47
2022-12-01T00:41:16.927Z,98574.66
2022-12-01T00:43:43.213Z,98573.47
2022-12-01T00:46:10.363Z,98574.94
2022-12-01T00:48:36.687Z,98573.72
2022-12-01T00:51:03.028Z,98580.53
2022-12-01T00:53:29.883Z,98581.16
2022-12-01T00:55:56.184Z,98587.13
2022-12-01T00:58:22.548Z,98575.25
2022-12-01T01:00:50.134Z,98581.00
2022-12-01T01:03:16.450Z,98580.84
2022-12-01T01:05:42.738Z,98572.47
2022-12-01T01:08:09.078Z,98578.19
2022-12-01T01:10:35.513Z,98587.66
2022-12-01T01:13:01.881Z,98578.47
2022-12-01T01:15:28.443Z,98585.81
2022-12-01T01:17:54.745Z,98587.09
2022-12-01T01:20:21.697Z,98583.22
2022-12-01T01:22:48.440Z,98583.66
2022-12-01T01:25:15.242Z,98590.19
2022-12-01T01:27:41.572Z,98591.41
2022-12-01T01:30:07.904Z,98596.38
2022-12-01T01:32:34.873Z,98585.34
2022-12-01T01:35:01.160Z,98583.28
2022-12-01T01:37:27.577Z,98594.34
2022-12-01T01:39:53.882Z,98592.94
2022-12-01T01:42:20.146Z,98589.88
2022-12-01T01:44:47.193Z,98590.31
2022-12-01T01:47:13.579Z,98594.41
2022-12-01T01:49:39.862Z,98586.03
2022-12-01T01:52:06.325Z,98592.59
2022-12-01T01:54:32.634Z,98601.00
2022-12-01T01:56:59.301Z,98600.38
2022-12-01T01:59:25.777Z,98595.69
2022-12-01T02:01:52.754Z,98594.28
2022-12-01T02:04:19.026Z,98596.53
2022-12-01T02:06:45.390Z,98596.91
2022-12-01T02:09:11.678Z,98599.00
2022-12-01T02:11:38.399Z,98593.06
2022-12-01T02:14:04.796Z,98603.28
2022-12-01T02:16:31.232Z,98599.19
2022-12-01T02:19:00.212Z,98595.31
2022-12-01T02:21:26.622Z,98601.03
2022-12-01T02:23:52.973Z,98608.38
2022-12-01T02:26:19.306Z,98601.66
2022-12-01T02:28:45.626Z,98605.53
2022-12-01T02:31:14.954Z,98606.78
2022-12-01T02:33:51.642Z,98608.81
2022-12-01T02:36:18.925Z,98600.44
2022-12-01T02:38:45.613Z,98603.53
2022-12-01T02:41:11.962Z,98602.06
2022-12-01T02:43:38.289Z,98610.47
2022-12-01T02:46:04.734Z,98604.75
2022-12-01T02:48:31.158Z,98604.94
2022-12-01T02:50:58.509Z,98608.81
2022-12-01T02:53:24.762Z,98602.28
2022-12-01T02:55:51.017Z,98603.53
2022-12-01T02:58:17.397Z,98601.28
2022-12-01T03:00:49.562Z,98599.84
2022-12-01T03:03:15.950Z,98602.91
2022-12-01T03:05:43.175Z,98598.00
2022-12-01T03:08:09.563Z,98608.81
2022-12-01T03:10:35.886Z,98599.44
2022-12-01T03:13:02.577Z,98599.84
2022-12-01T03:15:29.283Z,98601.06
2022-12-01T03:17:55.857Z,98605.97
2022-12-01T03:20:22.153Z,98600.03
2022-12-01T03:22:49.228Z,98597.81
2022-12-01T03:25:15.472Z,98598.22
2022-12-01T03:27:50.751Z,98599.41
2022-12-01T03:30:27.740Z,98599.00
2022-12-01T03:32:54.014Z,98595.75
2022-12-01T03:35:20.855Z,98598.81
2022-12-01T03:37:47.142Z,98600.84
2022-12-01T03:40:13.827Z,98597.56
2022-12-01T03:42:40.097Z,98603.28
2022-12-01T03:45:06.416Z,98592.06
2022-12-01T03:47:32.802Z,98600.41
2022-12-01T03:49:59.089Z,98602.44
2022-12-01T03:52:25.352Z,98603.66
2022-12-01T03:54:52.324Z,98597.75
2022-12-01T03:57:18.592Z,98598.97
2022-12-01T03:59:44.862Z,98611.59
2022-12-01T04:02:11.301Z,98603.03
2022-12-01T04:04:37.654Z,98600.59
2022-12-01T04:07:04.280Z,98602.59
2022-12-01T04:09:30.537Z,98599.31
2022-12-01T04:11:56.881Z,98607.47
2022-12-01T04:14:23.697Z,98599.91
2022-12-01T04:16:50.018Z,98607.25
2022-12-01T04:19:16.622Z,98605.00
2022-12-01T04:21:43.208Z,98610.72
2022-12-01T04:24:09.580Z,98607.44
2022-12-01T04:26:36.540Z,98608.63
2022-12-01T04:29:03.014Z,98611.50
2022-12-01T04:31:29.386Z,98611.91
2022-12-01T04:33:55.800Z,98621.88
2022-12-01T04:36:22.240Z,98619.63
2022-12-01T04:38:48.633Z,98611.06
2022-12-01T04:41:14.932Z,98616.75
2022-12-01T04:43:41.518Z,98608.19
2022-12-01T04:46:07.850Z,98615.50
2022-12-01T04:48:34.123Z,98615.91
2022-12-01T04:51:00.655Z,98617.94
2022-12-01T04:53:27.585Z,98613.03
2022-12-01T04:55:54.197Z,98614.22
2022-12-01T04:58:20.475Z,98617.09
2022-12-01T05:00:47.254Z,98610.53
2022-12-01T05:03:15.345Z,98610.72
2022-12-01T05:05:41.685Z,98626.00
2022-12-01T05:08:08.104Z,98621.94
2022-12-01T05:10:34.402Z,98639.00
2022-12-01T05:13:01.642Z,98625.97
2022-12-01T05:15:27.907Z,98643.06
2022-12-01T05:17:54.554Z,98644.28
2022-12-01T05:20:21.872Z,98639.97
2022-12-01T05:23:06.015Z,98639.56
2022-12-01T05:25:32.723Z,98644.06
2022-12-01T05:27:59.067Z,98642.59
2022-12-01T05:30:28.498Z,98622.53
2022-12-01T05:32:55.291Z,98646.63
2022-12-01T05:35:21.574Z,98646.19
2022-12-01T05:37:47.851Z,98653.56
2022-12-01T05:40:14.270Z,98645.97
2022-12-01T05:42:40.567Z,98647.00
2022-12-01T05:45:06.893Z,98646.56
2022-12-01T05:47:34.025Z,98649.41
2022-12-01T05:50:05.208Z,98657.53
2022-12-01T05:52:34.537Z,98653.44
2022-12-01T05:55:01.129Z,98650.16
2022-12-01T05:57:27.495Z,98658.28
2022-12-01T05:59:56.613Z,98657.66
2022-12-01T06:02:23.775Z,98658.06
2022-12-01T06:04:50.666Z,98660.91
2022-12-01T06:07:17.563Z,98668.22
2022-12-01T06:09:43.862Z,98667.56
2022-12-01T06:12:11.075Z,98674.88
2022-12-01T06:14:37.398Z,98673.25
2022-12-01T06:17:03.863Z,98669.97
2022-12-01T06:19:30.209Z,98676.47
2022-12-01T06:21:56.528Z,98676.66
2022-12-01T06:24:22.926Z,98677.88
2022-12-01T06:26:49.269Z,98683.31
2022-12-01T06:29:15.598Z,98681.03
2022-12-01T06:31:41.940Z,98687.34
2022-12-01T06:34:08.386Z,98683.25
2022-12-01T06:36:34.673Z,98683.25
2022-12-01T06:39:01.513Z,98687.09
2022-12-01T06:41:27.775Z,98695.22
2022-12-01T06:43:54.114Z,98694.41
2022-12-01T06:46:20.457Z,98697.44
2022-12-01T06:48:47.816Z,98695.78
2022-12-01T06:51:14.155Z,98700.44
2022-12-01T06:53:40.953Z,98707.56
2022-12-01T06:56:07.274Z,98701.66
2022-12-01T06:58:35.740Z,98704.28
2022-12-01T07:01:02.354Z,98707.94
2022-12-01T07:03:28.856Z,98707.31
2022-12-01T07:05:55.215Z,98707.13
2022-12-01T07:08:21.511Z,98710.41
2022-12-01T07:10:47.817Z,98714.75
2022-12-01T07:13:14.115Z,98708.22
2022-12-01T07:15:40.352Z,98716.09
2022-12-01T07:18:06.644Z,98722.34
2022-12-01T07:20:33.067Z,98716.31
2022-12-01T07:22:59.425Z,98721.34
2022-12-01T07:25:26.036Z,98722.19
2022-12-01T07:27:52.341Z,98727.72
2022-12-01T07:30:18.628Z,98725.53
2022-12-01T07:32:45.510Z,98732.91
2022-12-01T07:35:11.776Z,98740.69
2022-12-01T07:37:38.726Z,98737.84
2022-12-01T07:40:05.548Z,98744.81
2022-12-01T07:42:32.235Z,98749.72
2022-12-01T07:44:58.499Z,98747.25
2022-12-01T07:47:25.151Z,98744.81
2022-12-01T07:49:52.871Z,98752.00
2022-12-01T07:52:19.247Z,98754.84
2022-12-01T07:54:45.523Z,98757.72
2022-12-01T07:57:12.364Z,98764.09
2022-12-01T07:59:39.051Z,98753.88
2022-12-01T08:02:05.351Z,98752.44
2022-12-01T08:04:31.753Z,98757.13
2022-12-01T08:06:58.131Z,98760.41
2022-12-01T08:09:24.541Z,98755.50
2022-12-01T08:11:50.815Z,98760.59
2022-12-01T08:14:17.117Z,98757.53
2022-12-01T08:16:43.616Z,98759.19
2022-12-01T08:19:09.920Z,98758.34
2022-12-01T08:21:36.388Z,98767.78
2022-12-01T08:24:02.805Z,98760.41
2022-12-01T08:26:29.104Z,98774.28
2022-12-01T08:28:55.419Z,98766.13
2022-12-01T08:31:21.741Z,98773.06
2022-12-01T08:33:48.112Z,98772.03
2022-12-01T08:36:14.723Z,98773.69
2022-12-01T08:38:41.644Z,98771.03
2022-12-01T08:41:07.909Z,98772.44
2022-12-01T08:43:56.579Z,98769.59
2022-12-01T08:46:21.673Z,98773.88
2022-12-01T08:48:48.061Z,98767.53
2022-12-01T08:51:14.377Z,98771.03
2022-12-01T08:53:45.332Z,98767.31
2022-12-01T08:56:12.015Z,98769.81
2022-12-01T08:58:38.669Z,98775.91
2022-12-01T09:01:04.984Z,98774.91
2022-12-01T09:03:31.331Z,98762.41
2022-12-01T09:05:58.189Z,98776.31
2022-12-01T09:08:24.452Z,98777.97
2022-12-01T09:10:50.720Z,98781.25
2022-12-01T09:13:17.009Z,98781.03
2022-12-01T09:15:43.695Z,98780.00
2022-12-01T09:18:10.608Z,98785.09
2022-12-01T09:20:36.899Z,98788.59
2022-12-01T09:23:03.158Z,98783.28
2022-12-01T09:25:30.090Z,98792.69
2022-12-01T09:27:56.374Z,98784.28
2022-12-01T09:30:22.719Z,98783.25
2022-12-01T09:32:49.034Z,98785.72
2022-12-01T09:35:17.651Z,98782.84
2022-12-01T09:37:45.883Z,98786.09
2022-12-01T09:40:12.391Z,98791.22
2022-12-01T09:42:38.677Z,98787.75
2022-12-01T09:45:04.946Z,98784.88
2022-12-01T09:47:31.222Z,98782.03
2022-12-01T09:49:57.512Z,98781.81
2022-12-01T09:52:24.246Z,98784.25
2022-12-01T09:54:50.586Z,98779.97
2022-12-01T09:57:16.857Z,98778.94
2022-12-01T09:59:43.170Z,98776.28
2022-12-01T10:02:09.753Z,98767.28
2022-12-01T10:04:36.551Z,98774.44
2022-12-01T10:07:03.335Z,98778.72
2022-12-01T10:09:29.840Z,98769.53
2022-12-01T10:11:56.562Z,98760.72
2022-12-01T10:14:22.941Z,98765.25
2022-12-01T10:16:49.359Z,98763.16
2022-12-01T10:19:15.743Z,98765.03
2022-12-01T10:21:42.032Z,98761.56
2022-12-01T10:24:08.363Z,98750.91
2022-12-01T10:29:23.107Z,98757.84
2022-12-01T10:31:49.521Z,98754.19
2022-12-01T10:34:15.993Z,98757.47
2022-12-01T10:36:43.296Z,98752.94
2022-12-01T10:39:09.552Z,98755.41
2022-12-01T10:41:35.873Z,98753.34
2022-12-01T10:44:02.533Z,98763.56
2022-12-01T10:46:29.599Z,98748.41
2022-12-01T10:48:56.454Z,98752.94
2022-12-01T10:51:22.757Z,98755.38
2022-12-01T10:53:49.452Z,98761.53
2022-12-01T10:56:15.851Z,98757.81
2022-12-01T10:58:42.436Z,98754.13
2022-12-01T11:01:08.760Z,98750.47
2022-12-01T11:03:35.230Z,98745.75
2022-12-01T11:06:03.590Z,98747.97
2022-12-01T11:08:29.925Z,98739.78
2022-12-01T11:10:56.190Z,98747.56
2022-12-01T11:13:22.520Z,98739.38
2022-12-01T11:15:48.780Z,98738.34
2022-12-01T11:18:15.342Z,98742.44
2022-12-01T11:20:41.768Z,98737.94
2022-12-01T11:23:08.154Z,98737.75
2022-12-01T11:25:34.477Z,98733.25
2022-12-01T11:28:02.101Z,98728.75
2022-12-01T11:30:28.540Z,98722.59
2022-12-01T11:32:55.609Z,98725.03
2022-12-01T11:35:22.040Z,98726.66
2022-12-01T11:38:13.372Z,98721.34
2022-12-01T11:40:34.622Z,98720.34
2022-12-01T11:43:04.000Z,98731.59
2022-12-01T11:45:30.405Z,98720.13
2022-12-01T11:47:56.709Z,98724.22
2022-12-01T11:50:23.065Z,98725.22
2022-12-01T11:52:49.431Z,98725.84
2022-12-01T11:55:15.737Z,98724.78
2022-12-01T11:57:42.883Z,98727.06
2022-12-01T12:00:09.258Z,98719.66
2022-12-01T12:02:35.667Z,98722.91
2022-12-01T12:05:02.490Z,98721.91
2022-12-01T12:07:29.177Z,98715.53
2022-12-01T12:09:55.522Z,98721.47
2022-12-01T12:12:21.833Z,98721.25
2022-12-01T12:14:48.547Z,98720.44
2022-12-01T12:17:15.778Z,98714.09
2022-12-01T12:22:28.618Z,98713.03
2022-12-01T12:24:54.899Z,98718.38
2022-12-01T12:27:21.224Z,98717.38
2022-12-01T12:32:46.853Z,98718.38
2022-12-01T12:35:16.543Z,98716.53
2022-12-01T12:37:42.921Z,98715.72
2022-12-01T12:40:09.554Z,98716.53
2022-12-01T12:42:36.302Z,98715.31
2022-12-01T12:45:02.636Z,98717.16
2022-12-01T12:47:28.950Z,98718.97
2022-12-01T12:49:56.060Z,98716.31
2022-12-01T12:52:22.331Z,98715.50
2022-12-01T12:54:49.568Z,98711.00
2022-12-01T12:57:16.583Z,98715.31
2022-12-01T12:59:43.960Z,98717.97
2022-12-01T13:02:10.967Z,98717.97
2022-12-01T13:04:37.436Z,98717.97
2022-12-01T13:07:03.712Z,98712.66
2022-12-01T13:09:30.047Z,98716.31
2022-12-01T13:11:56.292Z,98706.50
2022-12-01T13:14:22.574Z,98706.50
2022-12-01T13:16:48.886Z,98707.31
2022-12-01T13:19:15.258Z,98709.75
2022-12-01T13:21:41.626Z,98699.91
2022-12-01T13:24:08.733Z,98697.06
2022-12-01T13:26:35.401Z,98702.38
2022-12-01T13:29:01.785Z,98704.00
2022-12-01T13:31:28.570Z,98697.84
2022-12-01T13:33:55.124Z,98693.13
2022-12-01T13:39:07.847Z,98684.16
2022-12-01T13:41:34.144Z,98691.09
2022-12-01T13:44:00.842Z,98688.44
2022-12-01T13:46:27.735Z,98679.41
2022-12-01T13:48:54.057Z,98676.94
2022-12-01T13:51:20.463Z,98677.78
2022-12-01T13:53:49.748Z,98672.44
2022-12-01T13:56:16.227Z,98677.78
2022-12-01T13:58:42.572Z,98675.13
2022-12-01T14:01:11.495Z,98674.28
2022-12-01T14:06:35.982Z,98671.63
2022-12-01T14:09:02.605Z,98669.78
2022-12-01T14:11:29.083Z,98665.06
2022-12-01T14:13:55.574Z,98673.88
2022-12-01T14:16:21.990Z,98663.00
2022-12-01T14:18:49.211Z,98666.47
2022-12-01T14:21:15.546Z,98667.91
2022-12-01T14:23:42.007Z,98665.22
2022-12-01T14:26:08.360Z,98670.34
2022-12-01T14:28:35.360Z,98668.50
2022-12-01T14:33:56.003Z,98677.50
2022-12-01T14:36:22.465Z,98674.84
2022-12-01T14:38:49.438Z,98676.94
2022-12-01T14:41:21.092Z,98668.94
2022-12-01T14:43:48.963Z,98681.44
2022-12-01T14:46:15.289Z,98682.25
2022-12-01T14:48:46.198Z,98678.53
2022-12-01T14:51:12.514Z,98679.38
2022-12-01T14:53:39.412Z,98683.03
2022-12-01T14:56:06.597Z,98689.19
2022-12-01T14:58:33.562Z,98690.81
2022-12-01T15:00:59.881Z,98689.19
2022-12-01T15:03:31.838Z,98695.56
2022-12-01T15:05:58.484Z,98689.19
2022-12-01T15:08:42.342Z,98689.41
2022-12-01T15:11:11.423Z,98687.97
2022-12-01T15:13:38.028Z,98682.66
2022-12-01T15:16:04.436Z,98680.00
2022-12-01T15:18:30.789Z,98681.03
2022-12-01T15:20:57.133Z,98681.03
2022-12-01T15:23:24.177Z,98676.72
2022-12-01T15:25:50.493Z,98684.16
2022-12-01T15:28:17.314Z,98684.16
2022-12-01T15:30:43.742Z,98691.53
2022-12-01T15:33:10.043Z,98693.34
2022-12-01T15:35:36.596Z,98680.28
2022-12-01T15:38:03.660Z,98685.59
2022-12-01T15:43:16.704Z,98680.28
2022-12-01T15:45:43.120Z,98689.25
2022-12-01T15:48:09.592Z,98688.47
2022-12-01T15:50:37.680Z,98681.28
2022-12-01T15:53:07.520Z,98687.22
2022-12-01T15:55:33.793Z,98675.97
2022-12-01T15:58:00.654Z,98683.94
2022-12-01T16:00:26.981Z,98689.25
2022-12-01T16:02:53.325Z,98683.38
2022-12-01T16:05:19.765Z,98687.66
2022-12-01T16:10:32.319Z,98680.03
2022-12-01T16:12:59.674Z,98688.84
2022-12-01T16:15:25.912Z,98682.66
2022-12-01T16:17:52.238Z,98681.81
2022-12-01T16:20:24.199Z,98687.91
2022-12-01T16:22:50.571Z,98692.97
2022-12-01T16:25:16.870Z,98688.41
2022-12-01T16:27:43.121Z,98697.97
2022-12-01T16:30:09.449Z,98698.75
2022-12-01T16:32:37.064Z,98699.28
2022-12-01T16:35:04.727Z,98708.06
2022-12-01T16:37:31.096Z,98708.38
2022-12-01T16:39:57.546Z,98698.47
2022-12-01T16:42:23.881Z,98704.19
2022-12-01T16:44:51.423Z,98702.13
2022-12-01T16:47:17.977Z,98699.25
2022-12-01T16:49:44.648Z,98700.06
2022-12-01T16:54:57.589Z,98699.47
2022-12-01T16:57:23.941Z,98700.84
2022-12-01T16:59:50.238Z,98702.13
2022-12-01T17:02:16.625Z,98709.06
2022-12-01T17:04:43.005Z,98695.16
2022-12-01T17:07:09.555Z,98699.69
2022-12-01T17:09:35.817Z,98694.34
2022-12-01T17:12:02.176Z,98702.56
2022-12-01T17:14:28.482Z,98691.53
2022-12-01T17:16:55.634Z,98697.72
2022-12-01T17:19:23.040Z,98692.84
2022-12-01T17:21:49.440Z,98701.28
2022-12-01T17:24:19.078Z,98692.69
2022-12-01T17:26:45.980Z,98690.25
2022-12-01T17:29:12.654Z,98693.28
2022-12-01T17:31:39.023Z,98698.63
2022-12-01T17:34:05.645Z,98698.84
2022-12-01T17:36:32.488Z,98702.78
2022-12-01T17:38:59.509Z,98703.78
2022-12-01T17:41:25.800Z,98701.34
2022-12-01T17:43:52.131Z,98701.56
2022-12-01T17:46:18.483Z,98704.47
2022-12-01T17:48:44.857Z,98706.53
2022-12-01T17:51:11.236Z,98702.19
2022-12-01T17:53:37.537Z,98695.25
2022-12-01T17:56:04.543Z,98698.16
2022-12-01T17:58:30.962Z,98702.66
2022-12-01T18:00:57.470Z,98702.88
2022-12-01T18:03:24.703Z,98704.94
2022-12-01T18:05:51.126Z,98697.16
2022-12-01T18:08:17.450Z,98701.66
2022-12-01T18:10:44.690Z,98707.16
2022-12-01T18:13:10.990Z,98698.81
2022-12-01T18:15:37.374Z,98708.19
2022-12-01T18:18:03.647Z,98710.00
2022-12-01T18:20:30.607Z,98707.28
2022-12-01T18:22:56.877Z,98716.25
2022-12-01T18:25:23.267Z,98710.91
2022-12-01T18:27:49.535Z,98713.50
2022-12-01T18:30:15.847Z,98712.41
2022-12-01T18:32:42.836Z,98708.44
2022-12-01T18:35:09.102Z,98711.84
2022-12-01T18:37:35.433Z,98705.63
2022-12-01T18:40:02.739Z,98710.88
2022-12-01T18:42:29.001Z,98708.38
2022-12-01T18:44:55.309Z,98713.03
2022-12-01T18:47:21.583Z,98702.97
2022-12-01T18:49:47.856Z,98710.75
2022-12-01T18:52:14.152Z,98702.53
2022-12-01T18:54:40.431Z,98706.63
2022-12-01T18:57:07.935Z,98697.94
2022-12-01T18:59:34.248Z,98700.16
2022-12-01T19:02:00.669Z,98700.09
2022-12-01T19:04:26.979Z,98704.75
2022-12-01T19:06:54.246Z,98700.59
2022-12-01T19:09:20.519Z,98695.63
2022-12-01T19:11:46.876Z,98695.41
2022-12-01T19:14:13.354Z,98693.13
2022-12-01T19:16:39.990Z,98691.84
2022-12-01T19:19:06.578Z,98682.59
2022-12-01T19:21:32.901Z,98683.97
2022-12-01T19:23:59.916Z,98680.28
2022-12-01T19:26:29.419Z,98688.88
2022-12-01T19:28:56.475Z,98680.44
2022-12-01T19:31:22.869Z,98687.19
2022-12-01T19:33:49.858Z,98684.28
2022-12-01T19:36:16.217Z,98686.72
2022-12-01T19:38:42.507Z,98684.41
2022-12-01T19:41:08.796Z,98683.34
2022-12-01T19:43:35.708Z,98685.44
2022-12-01T19:46:02.046Z,98683.22
2022-12-01T19:48:29.127Z,98671.97
2022-12-01T19:50:56.175Z,98676.13
2022-12-01T19:53:22.903Z,98669.63
2022-12-01T19:55:51.123Z,98677.03
2022-12-01T19:58:17.806Z,98674.81
2022-12-01T20:00:45.202Z,98679.56
2022-12-01T20:03:11.630Z,98672.63
2022-12-01T20:05:37.902Z,98676.34
2022-12-01T20:08:08.081Z,98673.91
2022-12-01T20:10:37.462Z,98671.91
2022-12-01T20:13:05.390Z,98673.84
2022-12-01T20:15:31.825Z,98676.13
2022-12-01T20:17:58.977Z,98676.00
2022-12-01T20:20:27.534Z,98681.19
2022-12-01T20:22:58.478Z,98678.16
2022-12-01T20:25:24.737Z,98676.75
2022-12-01T20:27:52.952Z,98675.72
2022-12-01T20:30:21.978Z,98671.63
2022-12-01T20:32:48.702Z,98675.56
2022-12-01T20:38:08.821Z,98680.44
2022-12-01T20:40:39.472Z,98673.41
2022-12-01T20:43:08.158Z,98677.88
2022-12-01T20:45:34.529Z,98679.03
2022-12-01T20:48:00.802Z,98670.81
2022-12-01T20:50:27.116Z,98667.13
2022-12-01T20:52:53.392Z,98674.28
2022-12-01T20:55:19.771Z,98670.81
2022-12-01T20:57:48.389Z,98660.50
2022-12-01T21:00:20.910Z,98658.19
2022-12-01T21:02:53.460Z,98665.53
2022-12-01T21:05:19.756Z,98669.59
2022-12-01T21:07:46.146Z,98667.31
2022-12-01T21:10:17.000Z,98662.94
2022-12-01T21:12:46.018Z,98661.09
2022-12-01T21:15:12.639Z,98653.34
2022-12-01T21:17:41.121Z,98658.66
2022-12-01T21:20:10.123Z,98662.31
2022-12-01T21:22:36.365Z,98661.72
2022-12-01T21:25:02.721Z,98660.34
2022-12-01T21:27:28.989Z,98655.00
2022-12-01T21:29:55.544Z,98661.59
2022-12-01T21:32:21.798Z,98663.09
2022-12-01T21:34:48.855Z,98659.47
2022-12-01T21:37:27.432Z,98665.41
2022-12-01T21:39:54.864Z,98657.03
2022-12-01T21:42:22.084Z,98653.19
2022-12-01T21:44:48.953Z,98651.63
2022-12-01T21:47:16.479Z,98652.53
2022-12-01T21:49:43.530Z,98640.66
2022-12-01T21:52:09.947Z,98649.72
2022-12-01T21:54:36.245Z,98646.47
2022-12-01T21:57:02.657Z,98636.22
2022-12-01T21:59:28.942Z,98637.50
2022-12-01T22:01:55.526Z,98645.34
2022-12-01T22:04:22.413Z,98645.78
2022-12-01T22:06:48.712Z,98636.38
2022-12-01T22:09:15.039Z,98637.63
2022-12-01T22:11:41.985Z,98637.84
2022-12-01T22:14:08.490Z,98630.31
2022-12-01T22:16:34.771Z,98639.78
2022-12-01T22:19:01.259Z,98641.03
2022-12-01T22:21:27.561Z,98641.47
2022-12-01T22:23:53.840Z,98638.22
2022-12-01T22:26:20.251Z,98632.53
2022-12-01T22:28:46.924Z,98635.38
2022-12-01T22:31:13.310Z,98637.47
2022-12-01T22:33:40.392Z,98635.22
2022-12-01T22:36:06.677Z,98634.66
2022-12-01T22:38:33.009Z,98630.56
2022-12-01T22:40:59.251Z,98631.78
2022-12-01T22:43:25.614Z,98633.88
2022-12-01T22:45:51.882Z,98634.28
2022-12-01T22:48:18.164Z,98628.19
2022-12-01T22:50:48.741Z,98618.75
2022-12-01T22:53:17.929Z,98626.16
2022-12-01T22:55:44.548Z,98624.94
2022-12-01T22:58:11.607Z,98623.56
2022-12-01T23:00:37.910Z,98618.44
2022-12-01T23:03:04.956Z,98609.25
2022-12-01T23:05:31.297Z,98612.38
2022-12-01T23:07:57.711Z,98614.44
2022-12-01T23:10:24.292Z,98611.16
2022-12-01T23:12:51.419Z,98608.72
2022-12-01T23:15:17.743Z,98605.47
2022-12-01T23:17:44.265Z,98601.41
2022-12-01T23:20:10.517Z,98603.47
2022-12-01T23:22:36.822Z,98598.56
2022-12-01T23:25:03.099Z,98596.94
2022-12-01T23:27:29.434Z,98599.00
2022-12-01T23:29:55.786Z,98596.78
2022-12-01T23:32:22.063Z,98597.78
2022-12-01T23:34:48.559Z,98597.00
2022-12-01T23:37:15.239Z,98591.28
2022-12-01T23:39:41.566Z,98584.31
2022-12-01T23:42:08.362Z,98584.31
2022-12-01T23:44:35.460Z,98581.09
2022-12-01T23:47:02.283Z,98577.59
2022-12-01T23:49:30.171Z,98560.72
2022-12-01T23:51:56.552Z,98582.31
2022-12-01T23:54:23.071Z,98577.22
2022-12-01T23:56:49.294Z,98579.28
2022-12-01T23:59:15.842Z,98575.00
